Carnes, Mississippi
Current Conditions -  °F | °C
As of 9:53 PM on Tuesday 25 Nov 2014 (Local Time) from KHBG Reporting Station
Clear Clear  
Wind Chill: 44°   Ceiling: Unl
Heat Index: 46°   Visibility: 10mi
Dew Point: 32°   Wind: 5mph
Humidity: 58%   Direction: 330°NNW
Pressure: 30.22"   Gusts: NA
Location:  31.0601°N, 89.4815°W
Report Text: KHBG 260353Z AUTO 33004KT 10SM CLR 08/00 A3022 RMK AO2 SLP232 T00780000
Loading
Personal Weather Stations






























Interactive Weather Map New forecast layout! Learn more

10-Day Weather Forecast

Advertisements
Track Severe Weather on mobile